createdAt,value
2022-08-27T00:00:36.828Z,19.70
2022-08-27T00:01:36.586Z,19.76
2022-08-27T00:02:36.525Z,19.72
2022-08-27T00:03:36.515Z,19.76
2022-08-27T00:04:36.562Z,19.73
2022-08-27T00:05:36.503Z,19.69
2022-08-27T00:06:36.762Z,19.69
2022-08-27T00:07:36.482Z,19.69
2022-08-27T00:08:36.464Z,19.72
2022-08-27T00:09:36.459Z,19.55
2022-08-27T00:10:36.442Z,19.48
2022-08-27T00:11:36.456Z,19.51
2022-08-27T00:12:36.426Z,19.54
2022-08-27T00:13:36.453Z,19.61
2022-08-27T00:14:36.403Z,19.60
2022-08-27T00:15:36.427Z,19.55
2022-08-27T00:16:36.443Z,19.63
2022-08-27T00:17:36.374Z,19.57
2022-08-27T00:18:36.361Z,19.58
2022-08-27T00:19:36.364Z,19.57
2022-08-27T00:20:36.349Z,19.63
2022-08-27T00:21:36.353Z,19.60
2022-08-27T00:22:36.329Z,19.51
2022-08-27T00:23:36.325Z,19.65
2022-08-27T00:24:36.309Z,19.63
2022-08-27T00:25:37.305Z,19.65
2022-08-27T00:26:40.173Z,19.55
2022-08-27T00:27:37.282Z,19.61
2022-08-27T00:28:36.454Z,19.57
2022-08-27T00:29:36.260Z,19.63
2022-08-27T00:30:36.259Z,19.61
2022-08-27T00:31:36.341Z,19.70
2022-08-27T00:32:36.229Z,19.75
2022-08-27T00:33:36.222Z,19.73
2022-08-27T00:34:36.210Z,19.70
2022-08-27T00:35:36.206Z,19.68
2022-08-27T00:36:36.200Z,19.75
2022-08-27T00:37:36.177Z,19.70
2022-08-27T00:38:36.170Z,19.75
2022-08-27T00:39:36.163Z,19.75
2022-08-27T00:40:36.189Z,19.88
2022-08-27T00:41:36.179Z,19.80
2022-08-27T00:42:36.129Z,19.86
2022-08-27T00:43:36.119Z,19.94
2022-08-27T00:44:36.105Z,20.00
2022-08-27T00:45:36.119Z,19.90
2022-08-27T00:46:36.126Z,19.91
2022-08-27T00:47:36.086Z,19.84
2022-08-27T00:48:36.064Z,19.84
2022-08-27T00:49:36.065Z,19.86
2022-08-27T00:50:36.046Z,19.91
2022-08-27T00:51:36.036Z,19.86
2022-08-27T00:52:36.041Z,19.88
2022-08-27T00:53:36.017Z,19.88
2022-08-27T00:54:36.011Z,19.79
2022-08-27T00:55:35.993Z,19.83
2022-08-27T00:56:36.120Z,19.84
2022-08-27T00:57:35.996Z,19.73
2022-08-27T00:58:35.971Z,19.75
2022-08-27T00:59:35.960Z,19.69
2022-08-27T01:00:35.983Z,19.73
2022-08-27T01:01:36.073Z,19.70
2022-08-27T01:02:36.023Z,19.76
2022-08-27T01:03:35.923Z,19.73
2022-08-27T01:04:35.916Z,19.78
2022-08-27T01:05:35.904Z,19.83
2022-08-27T01:06:35.896Z,19.86
2022-08-27T01:07:35.894Z,19.93
2022-08-27T01:08:35.875Z,19.75
2022-08-27T01:09:35.862Z,19.79
2022-08-27T01:10:35.861Z,19.83
2022-08-27T01:11:35.853Z,19.93
2022-08-27T01:12:36.054Z,19.93
2022-08-27T01:13:54.050Z,19.93
2022-08-27T01:14:36.824Z,19.88
2022-08-27T01:15:35.814Z,19.95
2022-08-27T01:16:35.877Z,19.94
2022-08-27T01:17:35.797Z,19.95
2022-08-27T01:18:35.801Z,20.00
2022-08-27T01:19:35.771Z,19.94
2022-08-27T01:20:35.767Z,20.09
2022-08-27T01:21:35.867Z,20.00
2022-08-27T01:22:35.768Z,20.00
2022-08-27T01:23:35.737Z,20.08
2022-08-27T01:24:35.841Z,20.09
2022-08-27T01:25:35.717Z,20.03
2022-08-27T01:26:35.710Z,20.08
2022-08-27T01:27:35.720Z,20.10
2022-08-27T01:28:37.555Z,20.02
2022-08-27T01:29:35.680Z,20.06
2022-08-27T01:30:35.668Z,20.00
2022-08-27T01:31:35.689Z,19.97
2022-08-27T01:32:35.691Z,20.02
2022-08-27T01:33:35.637Z,19.94
2022-08-27T01:34:35.634Z,20.06
2022-08-27T01:35:35.622Z,20.05
2022-08-27T01:36:35.611Z,19.95
2022-08-27T01:37:35.617Z,20.00
2022-08-27T01:38:35.591Z,19.95
2022-08-27T01:39:35.577Z,19.90
2022-08-27T01:40:35.609Z,19.93
2022-08-27T01:41:35.558Z,19.83
2022-08-27T01:42:35.559Z,19.79
2022-08-27T01:43:35.729Z,19.86
2022-08-27T01:44:35.526Z,19.87
2022-08-27T01:45:35.522Z,19.87
2022-08-27T01:46:35.528Z,19.83
2022-08-27T01:47:35.515Z,19.87
2022-08-27T01:48:35.724Z,19.80
2022-08-27T01:49:35.490Z,19.79
2022-08-27T01:50:35.480Z,19.79
2022-08-27T01:51:35.463Z,19.86
2022-08-27T01:52:35.473Z,19.80
2022-08-27T01:53:35.447Z,19.83
2022-08-27T01:54:35.436Z,19.87
2022-08-27T01:55:35.421Z,19.94
2022-08-27T01:56:35.416Z,19.93
2022-08-27T01:57:35.416Z,19.94
2022-08-27T01:58:35.402Z,19.95
2022-08-27T01:59:39.668Z,19.94
2022-08-27T02:00:35.409Z,20.08
2022-08-27T02:01:35.533Z,20.06
2022-08-27T02:02:35.351Z,19.94
2022-08-27T02:03:35.342Z,20.03
2022-08-27T02:04:35.334Z,20.08
2022-08-27T02:05:43.814Z,20.10
2022-08-27T02:06:36.330Z,20.05
2022-08-27T02:07:35.306Z,20.03
2022-08-27T02:08:35.301Z,20.09
2022-08-27T02:09:35.287Z,20.15
2022-08-27T02:10:35.281Z,20.12
2022-08-27T02:11:35.277Z,20.09
2022-08-27T02:12:36.258Z,20.06
2022-08-27T02:13:35.244Z,20.10
2022-08-27T02:14:35.238Z,20.06
2022-08-27T02:15:35.231Z,20.08
2022-08-27T02:16:35.285Z,19.93
2022-08-27T02:17:36.381Z,19.98
2022-08-27T02:18:35.236Z,19.91
2022-08-27T02:19:35.191Z,19.88
2022-08-27T02:20:35.188Z,19.80
2022-08-27T02:21:35.182Z,19.76
2022-08-27T02:22:35.165Z,19.75
2022-08-27T02:23:35.153Z,19.75
2022-08-27T02:24:35.145Z,19.69
2022-08-27T02:25:35.130Z,19.68
2022-08-27T02:26:35.138Z,19.73
2022-08-27T02:27:35.110Z,19.75
2022-08-27T02:28:35.104Z,19.72
2022-08-27T02:29:35.094Z,19.73
2022-08-27T02:30:35.091Z,19.72
2022-08-27T02:31:35.122Z,19.75
2022-08-27T02:32:35.063Z,19.63
2022-08-27T02:33:35.051Z,19.63
2022-08-27T02:34:35.046Z,19.55
2022-08-27T02:35:35.263Z,19.55
2022-08-27T02:36:35.040Z,19.60
2022-08-27T02:37:35.012Z,19.60
2022-08-27T02:38:35.007Z,19.65
2022-08-27T02:39:34.995Z,19.60
2022-08-27T02:40:35.054Z,19.54
2022-08-27T02:41:34.991Z,19.60
2022-08-27T02:42:34.967Z,19.66
2022-08-27T02:43:34.955Z,19.51
2022-08-27T02:44:34.947Z,19.53
2022-08-27T02:45:35.527Z,19.51
2022-08-27T02:46:35.169Z,19.51
2022-08-27T02:47:34.920Z,19.57
2022-08-27T02:48:34.912Z,19.58
2022-08-27T02:49:34.893Z,19.63
2022-08-27T02:50:34.891Z,19.61
2022-08-27T02:51:34.890Z,19.65
2022-08-27T02:52:34.880Z,19.66
2022-08-27T02:53:34.858Z,19.73
2022-08-27T02:54:34.853Z,19.75
2022-08-27T02:55:34.843Z,19.66
2022-08-27T02:56:34.845Z,19.73
2022-08-27T02:57:36.625Z,19.83
2022-08-27T02:58:34.833Z,19.83
2022-08-27T02:59:34.799Z,19.73
2022-08-27T03:00:34.794Z,19.73
2022-08-27T03:01:34.865Z,19.76
2022-08-27T03:02:34.915Z,19.63
2022-08-27T03:03:34.763Z,19.70
2022-08-27T03:04:34.957Z,19.75
2022-08-27T03:05:34.744Z,19.78
2022-08-27T03:06:34.750Z,19.84
2022-08-27T03:07:34.953Z,19.78
2022-08-27T03:08:52.018Z,19.86
2022-08-27T03:09:35.734Z,19.86
2022-08-27T03:10:34.696Z,19.90
2022-08-27T03:11:34.699Z,19.98
2022-08-27T03:12:34.880Z,19.94
2022-08-27T03:13:34.666Z,19.97
2022-08-27T03:14:34.798Z,20.00
2022-08-27T03:15:34.649Z,20.05
2022-08-27T03:16:34.657Z,20.06
2022-08-27T03:17:34.632Z,19.93
2022-08-27T03:18:34.625Z,20.06
2022-08-27T03:19:34.612Z,20.15
2022-08-27T03:20:34.604Z,20.03
2022-08-27T03:21:34.609Z,19.93
2022-08-27T03:22:34.588Z,19.94
2022-08-27T03:23:34.782Z,19.88
2022-08-27T03:24:34.567Z,19.80
2022-08-27T03:25:34.639Z,19.75
2022-08-27T03:26:34.562Z,19.70
2022-08-27T03:27:34.531Z,19.65
2022-08-27T03:28:34.527Z,19.66
2022-08-27T03:29:34.515Z,19.69
2022-08-27T03:30:34.507Z,19.66
2022-08-27T03:31:34.535Z,19.65
2022-08-27T03:32:34.491Z,19.65
2022-08-27T03:33:34.473Z,19.69
2022-08-27T03:34:34.461Z,19.72
2022-08-27T03:35:34.466Z,19.75
2022-08-27T03:36:34.465Z,19.73
2022-08-27T03:37:34.437Z,19.76
2022-08-27T03:38:34.432Z,19.72
2022-08-27T03:39:34.415Z,19.75
2022-08-27T03:40:34.675Z,19.80
2022-08-27T03:41:45.456Z,19.84
2022-08-27T03:42:35.390Z,19.86
2022-08-27T03:43:34.388Z,19.86
2022-08-27T03:44:34.533Z,19.86
2022-08-27T03:45:48.440Z,19.93
2022-08-27T03:46:35.385Z,19.83
2022-08-27T03:47:34.341Z,19.83
2022-08-27T03:48:34.331Z,19.94
2022-08-27T03:49:34.315Z,19.91
2022-08-27T03:50:34.313Z,19.97
2022-08-27T03:51:34.315Z,19.97
2022-08-27T03:52:34.293Z,19.95
2022-08-27T03:53:34.284Z,19.95
2022-08-27T03:54:34.277Z,19.91
2022-08-27T03:55:34.258Z,19.94
2022-08-27T03:56:34.377Z,19.90
2022-08-27T03:57:34.244Z,19.84
2022-08-27T03:58:34.255Z,19.88
2022-08-27T03:59:34.226Z,19.97
2022-08-27T04:00:34.220Z,19.84
2022-08-27T04:01:34.339Z,19.69
2022-08-27T04:02:34.222Z,19.68
2022-08-27T04:03:34.185Z,19.68
2022-08-27T04:04:34.179Z,19.70
2022-08-27T04:05:34.168Z,19.68
2022-08-27T04:06:34.356Z,19.66
2022-08-27T04:07:34.161Z,19.72
2022-08-27T04:08:34.138Z,19.65
2022-08-27T04:09:34.128Z,19.57
2022-08-27T04:10:34.980Z,19.51
2022-08-27T04:11:34.209Z,19.42
2022-08-27T04:12:34.112Z,19.48
2022-08-27T04:13:34.089Z,19.43
2022-08-27T04:14:34.140Z,19.38
2022-08-27T04:15:34.066Z,19.39
2022-08-27T04:16:34.083Z,19.38
2022-08-27T04:17:34.061Z,19.38
2022-08-27T04:18:34.035Z,19.36
2022-08-27T04:19:34.023Z,19.39
2022-08-27T04:20:35.696Z,19.25
2022-08-27T04:21:34.043Z,19.40
2022-08-27T04:22:34.011Z,19.46
2022-08-27T04:23:34.204Z,19.32
2022-08-27T04:24:33.975Z,19.40
2022-08-27T04:25:33.966Z,19.46
2022-08-27T04:26:33.960Z,19.50
2022-08-27T04:27:33.962Z,19.50
2022-08-27T04:28:38.246Z,19.58
2022-08-27T04:29:33.941Z,19.51
2022-08-27T04:30:33.924Z,19.46
2022-08-27T04:31:33.942Z,19.47
2022-08-27T04:32:33.921Z,19.36
2022-08-27T04:33:33.890Z,19.32
2022-08-27T04:34:33.878Z,19.33
2022-08-27T04:35:33.871Z,19.36
2022-08-27T04:36:33.865Z,19.38
2022-08-27T04:37:33.867Z,19.39
2022-08-27T04:38:33.847Z,19.33
2022-08-27T04:39:33.830Z,19.31
2022-08-27T04:40:33.937Z,19.32
2022-08-27T04:41:33.810Z,19.21
2022-08-27T04:42:33.825Z,19.20
2022-08-27T04:43:33.798Z,19.24
2022-08-27T04:44:33.793Z,19.20
2022-08-27T04:45:33.811Z,19.25
2022-08-27T04:46:33.865Z,19.31
2022-08-27T04:47:33.780Z,19.17
2022-08-27T04:48:33.756Z,19.36
2022-08-27T04:49:33.757Z,19.15
2022-08-27T04:50:33.728Z,19.24
2022-08-27T04:51:33.720Z,19.25
2022-08-27T04:52:33.725Z,19.31
2022-08-27T04:53:34.699Z,19.35
2022-08-27T04:54:33.693Z,19.38
2022-08-27T04:55:33.753Z,19.35
2022-08-27T04:56:33.679Z,19.38
2022-08-27T04:57:33.675Z,19.35
2022-08-27T04:58:33.650Z,19.38
2022-08-27T04:59:33.643Z,19.43
2022-08-27T05:00:33.851Z,19.35
2022-08-27T05:01:33.673Z,19.38
2022-08-27T05:02:33.621Z,19.39
2022-08-27T05:03:33.601Z,19.53
2022-08-27T05:04:33.879Z,19.61
2022-08-27T05:05:33.621Z,19.69
2022-08-27T05:06:33.568Z,19.65
2022-08-27T05:07:33.573Z,19.55
2022-08-27T05:08:33.550Z,19.53
2022-08-27T05:09:33.536Z,19.61
2022-08-27T05:10:33.533Z,19.53
2022-08-27T05:11:33.525Z,19.50
2022-08-27T05:12:33.529Z,19.51
2022-08-27T05:13:33.515Z,19.55
2022-08-27T05:14:33.505Z,19.60
2022-08-27T05:15:33.563Z,19.54
2022-08-27T05:16:33.482Z,19.54
2022-08-27T05:17:33.477Z,19.57
2022-08-27T05:18:37.613Z,19.63
2022-08-27T05:19:34.448Z,19.60
2022-08-27T05:20:33.541Z,19.66
2022-08-27T05:21:33.443Z,19.65
2022-08-27T05:22:33.431Z,19.58
2022-08-27T05:23:33.416Z,19.58
2022-08-27T05:24:33.396Z,19.58
2022-08-27T05:25:33.431Z,19.66
2022-08-27T05:26:33.564Z,19.55
2022-08-27T05:27:33.372Z,19.60
2022-08-27T05:28:33.375Z,19.61
2022-08-27T05:29:33.355Z,19.65
2022-08-27T05:30:33.347Z,19.57
2022-08-27T05:31:33.381Z,19.55
2022-08-27T05:32:33.334Z,19.48
2022-08-27T05:33:33.319Z,19.48
2022-08-27T05:34:33.313Z,19.63
2022-08-27T05:35:33.293Z,19.51
2022-08-27T05:36:33.283Z,19.55
2022-08-27T05:37:33.291Z,19.43
2022-08-27T05:38:33.263Z,19.40
2022-08-27T05:39:33.262Z,19.43
2022-08-27T05:40:33.267Z,19.53
2022-08-27T05:41:34.170Z,19.54
2022-08-27T05:42:33.241Z,19.53
2022-08-27T05:43:33.462Z,19.47
2022-08-27T05:44:41.553Z,19.46
2022-08-27T05:45:34.201Z,19.46
2022-08-27T05:46:33.250Z,19.51
2022-08-27T05:47:33.200Z,19.53
2022-08-27T05:48:33.172Z,19.46
2022-08-27T05:49:33.167Z,19.35
2022-08-27T05:50:33.151Z,19.43
2022-08-27T05:51:33.142Z,19.38
2022-08-27T05:52:33.129Z,19.39
2022-08-27T05:53:33.140Z,19.38
2022-08-27T05:54:33.116Z,19.28
2022-08-27T05:55:33.328Z,19.31
2022-08-27T05:56:33.095Z,19.32
2022-08-27T05:57:33.089Z,19.36
2022-08-27T05:58:33.090Z,19.33
2022-08-27T05:59:34.939Z,19.35
2022-08-27T06:00:33.058Z,19.39
2022-08-27T06:01:33.054Z,19.47
2022-08-27T06:02:33.084Z,19.43
2022-08-27T06:03:33.285Z,19.50
2022-08-27T06:04:33.037Z,19.51
2022-08-27T06:05:33.043Z,19.55
2022-08-27T06:06:33.004Z,19.46
2022-08-27T06:07:32.994Z,19.51
2022-08-27T06:08:32.990Z,19.58
2022-08-27T06:09:32.968Z,19.51
2022-08-27T06:10:32.956Z,19.58
2022-08-27T06:11:32.955Z,19.51
2022-08-27T06:12:32.941Z,19.48
2022-08-27T06:13:33.211Z,19.50
2022-08-27T06:14:32.966Z,19.51
2022-08-27T06:15:32.936Z,19.47
2022-08-27T06:16:32.895Z,19.42
2022-08-27T06:17:32.896Z,19.46
2022-08-27T06:18:32.899Z,19.53
2022-08-27T06:19:32.873Z,19.40
2022-08-27T06:20:32.864Z,19.39
2022-08-27T06:21:32.860Z,19.39
2022-08-27T06:22:33.021Z,19.46
2022-08-27T06:23:32.851Z,19.40
2022-08-27T06:24:32.825Z,19.51
2022-08-27T06:25:32.810Z,19.51
2022-08-27T06:26:32.804Z,19.48
2022-08-27T06:27:32.797Z,19.57
2022-08-27T06:28:32.795Z,19.54
2022-08-27T06:29:32.777Z,19.50
2022-08-27T06:30:32.760Z,19.58
2022-08-27T06:31:32.786Z,19.54
2022-08-27T06:32:32.741Z,19.54
2022-08-27T06:33:33.020Z,19.55
2022-08-27T06:34:32.801Z,19.46
2022-08-27T06:35:34.086Z,19.36
2022-08-27T06:36:32.702Z,19.39
2022-08-27T06:37:32.702Z,19.33
2022-08-27T06:38:32.699Z,19.29
2022-08-27T06:39:32.686Z,19.40
2022-08-27T06:40:32.722Z,19.36
2022-08-27T06:41:32.656Z,19.38
2022-08-27T06:42:32.645Z,19.38
2022-08-27T06:43:32.659Z,19.36
2022-08-27T06:44:32.618Z,19.38
2022-08-27T06:45:32.728Z,19.36
2022-08-27T06:46:32.726Z,19.25
2022-08-27T06:47:32.600Z,19.24
2022-08-27T06:48:32.600Z,19.35
2022-08-27T06:49:32.579Z,19.32
2022-08-27T06:50:32.566Z,19.32
2022-08-27T06:51:32.561Z,19.33
2022-08-27T06:52:32.549Z,19.35
2022-08-27T06:53:32.554Z,19.39
2022-08-27T06:54:32.528Z,19.25
2022-08-27T06:55:36.748Z,19.29
2022-08-27T06:56:32.518Z,19.21
2022-08-27T06:57:32.508Z,19.33
2022-08-27T06:58:32.505Z,19.25
2022-08-27T06:59:32.482Z,19.24
2022-08-27T07:00:32.470Z,19.24
2022-08-27T07:01:32.526Z,19.29
2022-08-27T07:02:32.525Z,19.35
2022-08-27T07:03:32.458Z,19.36
2022-08-27T07:04:32.989Z,19.42
2022-08-27T07:05:32.429Z,19.42
2022-08-27T07:06:32.414Z,19.51
2022-08-27T07:07:38.160Z,19.42
2022-08-27T07:08:33.410Z,19.38
2022-08-27T07:09:32.418Z,19.43
2022-08-27T07:10:32.376Z,19.38
2022-08-27T07:11:32.371Z,19.39
2022-08-27T07:12:32.353Z,19.36
2022-08-27T07:13:32.364Z,19.35
2022-08-27T07:14:37.094Z,19.39
2022-08-27T07:15:33.367Z,19.39
2022-08-27T07:16:32.327Z,19.40
2022-08-27T07:17:32.315Z,19.36
2022-08-27T07:18:32.317Z,19.42
2022-08-27T07:19:32.363Z,19.35
2022-08-27T07:20:32.282Z,19.36
2022-08-27T07:21:32.293Z,19.35
2022-08-27T07:22:32.257Z,19.35
2022-08-27T07:23:32.270Z,19.36
2022-08-27T07:24:32.246Z,19.53
2022-08-27T07:25:32.237Z,19.46
2022-08-27T07:26:32.222Z,19.42
2022-08-27T07:27:32.217Z,19.40
2022-08-27T07:28:32.211Z,19.38
2022-08-27T07:29:32.476Z,19.46
2022-08-27T07:30:32.209Z,19.43
2022-08-27T07:31:32.174Z,19.55
2022-08-27T07:32:32.167Z,19.58
2022-08-27T07:33:32.182Z,19.66
2022-08-27T07:34:32.149Z,19.58
2022-08-27T07:35:32.140Z,19.55
2022-08-27T07:36:32.125Z,19.55
2022-08-27T07:37:32.592Z,19.57
2022-08-27T07:38:32.129Z,19.48
2022-08-27T07:39:32.150Z,19.54
2022-08-27T07:40:32.131Z,19.55
2022-08-27T07:41:32.246Z,19.57
2022-08-27T07:42:32.069Z,19.48
2022-08-27T07:43:32.064Z,19.53
2022-08-27T07:44:34.512Z,19.57
2022-08-27T07:45:32.039Z,19.69
2022-08-27T07:46:32.029Z,19.76
2022-08-27T07:47:32.027Z,19.80
2022-08-27T07:48:32.009Z,19.87
2022-08-27T07:49:32.014Z,20.00
2022-08-27T07:50:32.064Z,20.10
2022-08-27T07:51:31.983Z,20.05
2022-08-27T07:52:31.972Z,20.12
2022-08-27T07:53:31.961Z,20.08
2022-08-27T07:54:31.964Z,20.12
2022-08-27T07:55:31.944Z,20.10
2022-08-27T07:56:31.924Z,20.15
2022-08-27T07:57:31.979Z,20.16
2022-08-27T07:58:31.909Z,19.95
2022-08-27T07:59:31.926Z,19.87
2022-08-27T08:00:31.898Z,20.00
2022-08-27T08:01:31.950Z,20.08
2022-08-27T08:02:32.099Z,20.03
2022-08-27T08:03:31.868Z,20.02
2022-08-27T08:04:31.866Z,20.05
2022-08-27T08:05:31.853Z,20.05
2022-08-27T08:06:31.833Z,20.00
2022-08-27T08:07:31.829Z,20.10
2022-08-27T08:08:31.826Z,20.10
2022-08-27T08:09:31.824Z,20.18
2022-08-27T08:10:35.399Z,20.27
2022-08-27T08:11:31.792Z,20.25
2022-08-27T08:12:31.780Z,20.24
2022-08-27T08:13:31.774Z,20.30
2022-08-27T08:14:31.775Z,20.25
2022-08-27T08:15:31.752Z,20.24
2022-08-27T08:16:31.964Z,20.16
2022-08-27T08:17:31.765Z,20.12
2022-08-27T08:18:31.720Z,20.16
2022-08-27T08:19:32.120Z,20.13
2022-08-27T08:20:56.465Z,20.16
2022-08-27T08:21:32.693Z,20.27
2022-08-27T08:22:31.679Z,20.20
2022-08-27T08:23:31.677Z,20.27
2022-08-27T08:24:31.677Z,20.25
2022-08-27T08:25:35.511Z,20.25
2022-08-27T08:26:32.646Z,20.23
2022-08-27T08:27:31.641Z,20.38
2022-08-27T08:28:31.623Z,20.35
2022-08-27T08:29:31.628Z,20.27
2022-08-27T08:30:35.547Z,20.24
2022-08-27T08:31:31.592Z,20.28
2022-08-27T08:32:31.584Z,20.30
2022-08-27T08:33:31.656Z,20.47
2022-08-27T08:34:31.576Z,20.80
2022-08-27T08:35:33.672Z,21.08
2022-08-27T08:36:31.543Z,21.17
2022-08-27T08:37:31.590Z,21.21
2022-08-27T08:38:31.526Z,21.34
2022-08-27T08:39:31.536Z,21.50
2022-08-27T08:40:31.541Z,21.48
2022-08-27T08:41:31.497Z,21.44
2022-08-27T08:42:31.490Z,21.34
2022-08-27T08:43:31.481Z,21.45
2022-08-27T08:44:31.488Z,21.46
2022-08-27T08:45:31.461Z,21.39
2022-08-27T08:46:31.492Z,21.41
2022-08-27T08:47:31.446Z,21.35
2022-08-27T08:48:31.424Z,21.26
2022-08-27T08:49:31.420Z,21.34
2022-08-27T08:50:31.504Z,21.35
2022-08-27T08:51:31.405Z,21.27
2022-08-27T08:52:32.067Z,21.34
2022-08-27T08:53:31.385Z,21.30
2022-08-27T08:54:31.371Z,21.30
2022-08-27T08:55:31.383Z,21.30
2022-08-27T08:56:31.352Z,21.21
2022-08-27T08:57:31.351Z,21.38
2022-08-27T08:58:31.333Z,21.34
2022-08-27T08:59:31.334Z,21.32
2022-08-27T09:00:31.330Z,21.44
2022-08-27T09:01:31.391Z,21.54
2022-08-27T09:02:31.297Z,21.53
2022-08-27T09:03:31.345Z,21.45
2022-08-27T09:04:31.280Z,21.50
2022-08-27T09:05:31.291Z,21.51
2022-08-27T09:06:31.260Z,21.57
2022-08-27T09:07:31.256Z,21.48
2022-08-27T09:08:36.424Z,21.56
2022-08-27T09:09:32.233Z,21.53
2022-08-27T09:10:31.237Z,21.59
2022-08-27T09:11:31.210Z,21.48
2022-08-27T09:12:32.047Z,21.53
2022-08-27T09:13:31.195Z,21.54
2022-08-27T09:14:31.192Z,21.48
2022-08-27T09:15:31.193Z,21.36
2022-08-27T09:16:31.252Z,21.30
2022-08-27T09:17:31.158Z,21.38
2022-08-27T09:18:31.149Z,21.59
2022-08-27T09:19:31.140Z,21.51
2022-08-27T09:20:31.164Z,21.61
2022-08-27T09:21:31.129Z,21.60
2022-08-27T09:22:31.165Z,21.67
2022-08-27T09:23:31.103Z,21.74
2022-08-27T09:24:31.166Z,21.75
2022-08-27T09:25:31.273Z,21.82
2022-08-27T09:26:31.081Z,21.83
2022-08-27T09:27:31.138Z,21.91
2022-08-27T09:28:31.068Z,21.90
2022-08-27T09:29:31.041Z,21.94
2022-08-27T09:30:31.165Z,21.92
2022-08-27T09:31:31.026Z,21.95
2022-08-27T09:32:31.017Z,21.90
2022-08-27T09:33:44.501Z,21.92
2022-08-27T09:34:32.009Z,21.88
2022-08-27T09:35:31.001Z,21.88
2022-08-27T09:36:31.017Z,21.90
2022-08-27T09:37:34.192Z,21.91
2022-08-27T09:38:33.600Z,21.90
2022-08-27T09:39:30.946Z,21.88
2022-08-27T09:40:30.992Z,21.88
2022-08-27T09:41:30.929Z,21.88
2022-08-27T09:42:30.918Z,21.82
2022-08-27T09:43:30.971Z,21.91
2022-08-27T09:44:30.900Z,21.95
2022-08-27T09:45:30.974Z,21.92
2022-08-27T09:46:30.887Z,22.09
2022-08-27T09:47:30.867Z,22.22
2022-08-27T09:48:30.858Z,22.50
2022-08-27T09:49:30.837Z,22.56
2022-08-27T09:50:30.849Z,22.89
2022-08-27T09:51:30.826Z,23.09
2022-08-27T09:52:30.819Z,23.20
2022-08-27T09:53:30.802Z,23.32
2022-08-27T09:54:30.803Z,23.46
2022-08-27T09:55:30.804Z,23.50
2022-08-27T09:56:30.782Z,23.57
2022-08-27T09:57:30.876Z,23.70
2022-08-27T09:58:30.760Z,23.67
2022-08-27T09:59:30.779Z,23.67
2022-08-27T10:00:30.758Z,23.71
2022-08-27T10:01:30.825Z,23.82
2022-08-27T10:02:30.718Z,23.85
2022-08-27T10:03:33.453Z,23.95
2022-08-27T10:04:30.787Z,23.82
2022-08-27T10:05:30.702Z,23.85
2022-08-27T10:06:30.681Z,23.94
2022-08-27T10:07:30.666Z,23.90
2022-08-27T10:08:30.667Z,23.95
2022-08-27T10:09:30.646Z,23.94
2022-08-27T10:10:30.704Z,24.02
2022-08-27T10:11:30.631Z,24.02
2022-08-27T10:12:30.623Z,24.00
2022-08-27T10:13:30.618Z,24.00
2022-08-27T10:14:30.610Z,23.95
2022-08-27T10:15:30.597Z,23.87
2022-08-27T10:16:31.660Z,23.87
2022-08-27T10:17:30.573Z,23.70
2022-08-27T10:18:30.559Z,23.64
2022-08-27T10:19:30.549Z,23.68
2022-08-27T10:20:31.005Z,23.57
2022-08-27T10:21:30.569Z,23.52
2022-08-27T10:22:30.540Z,23.49
2022-08-27T10:23:30.510Z,23.38
2022-08-27T10:24:30.525Z,23.40
2022-08-27T10:25:30.492Z,23.35
2022-08-27T10:26:33.713Z,23.39
2022-08-27T10:27:30.478Z,23.40
2022-08-27T10:28:30.469Z,23.42
2022-08-27T10:29:30.449Z,23.40
2022-08-27T10:30:31.957Z,23.35
2022-08-27T10:31:30.507Z,23.29
2022-08-27T10:32:30.442Z,23.40
2022-08-27T10:33:30.412Z,23.32
2022-08-27T10:34:30.406Z,23.32
2022-08-27T10:35:30.397Z,23.39
2022-08-27T10:36:30.400Z,23.32
2022-08-27T10:37:36.603Z,23.19
2022-08-27T10:38:31.372Z,23.08
2022-08-27T10:39:30.393Z,23.05
2022-08-27T10:40:30.393Z,23.02
2022-08-27T10:41:30.342Z,23.07
2022-08-27T10:42:30.324Z,22.97
2022-08-27T10:43:30.322Z,23.05
2022-08-27T10:44:30.302Z,23.05
2022-08-27T10:45:31.433Z,23.01
2022-08-27T10:46:30.382Z,22.89
2022-08-27T10:47:30.281Z,22.87
2022-08-27T10:48:30.268Z,22.82
2022-08-27T10:49:30.254Z,22.68
2022-08-27T10:50:30.247Z,22.83
2022-08-27T10:51:30.303Z,22.75
2022-08-27T10:52:30.379Z,22.78
2022-08-27T10:53:30.388Z,22.83
2022-08-27T10:54:30.365Z,22.96
2022-08-27T10:55:30.339Z,22.93
2022-08-27T10:56:30.339Z,22.87
2022-08-27T10:57:51.663Z,22.86
2022-08-27T10:58:31.229Z,22.87
2022-08-27T10:59:30.366Z,22.84
2022-08-27T11:00:30.240Z,23.01
2022-08-27T11:01:30.259Z,23.01
2022-08-27T11:02:30.258Z,22.99
2022-08-27T11:03:33.342Z,23.04
2022-08-27T11:04:30.177Z,23.05
2022-08-27T11:05:30.156Z,23.09
2022-08-27T11:06:30.163Z,23.08
2022-08-27T11:07:30.074Z,23.07
2022-08-27T11:08:30.068Z,23.07
2022-08-27T11:09:30.063Z,23.14
2022-08-27T11:10:30.071Z,23.07
2022-08-27T11:12:12.353Z,23.07
2022-08-27T11:12:31.032Z,23.08
2022-08-27T11:13:30.015Z,22.99
2022-08-27T11:14:30.008Z,23.15
2022-08-27T11:15:29.998Z,23.08
2022-08-27T11:16:30.029Z,23.14
2022-08-27T11:17:32.208Z,23.05
2022-08-27T11:18:29.995Z,23.02
2022-08-27T11:19:29.961Z,23.04
2022-08-27T11:20:29.954Z,23.09
2022-08-27T11:21:29.954Z,23.01
2022-08-27T11:22:29.931Z,23.01
2022-08-27T11:23:29.927Z,22.84
2022-08-27T11:24:34.379Z,22.78
2022-08-27T11:25:30.895Z,22.74
2022-08-27T11:26:29.994Z,22.69
2022-08-27T11:27:29.879Z,22.57
2022-08-27T11:28:30.418Z,22.56
2022-08-27T11:29:30.583Z,22.39
2022-08-27T11:30:29.883Z,22.44
2022-08-27T11:31:29.924Z,22.35
2022-08-27T11:32:29.841Z,22.43
2022-08-27T11:33:29.823Z,22.38
2022-08-27T11:34:29.864Z,22.46
2022-08-27T11:35:29.834Z,22.46
2022-08-27T11:36:29.819Z,22.44
2022-08-27T11:37:29.789Z,22.35
2022-08-27T11:38:29.777Z,22.38
2022-08-27T11:39:29.767Z,22.34
2022-08-27T11:40:29.796Z,22.34
2022-08-27T11:41:29.765Z,22.27
2022-08-27T11:42:30.743Z,22.41
2022-08-27T11:43:29.732Z,22.47
2022-08-27T11:44:29.719Z,22.50
2022-08-27T11:45:29.713Z,22.47
2022-08-27T11:46:29.740Z,22.57
2022-08-27T11:47:29.694Z,22.69
2022-08-27T11:48:29.711Z,22.78
2022-08-27T11:49:29.673Z,22.93
2022-08-27T11:50:29.669Z,23.04
2022-08-27T11:51:29.669Z,23.07
2022-08-27T11:52:29.643Z,23.11
2022-08-27T11:53:29.632Z,23.05
2022-08-27T11:54:29.620Z,23.19
2022-08-27T11:55:29.607Z,23.23
2022-08-27T11:56:29.615Z,23.15
2022-08-27T11:57:29.637Z,23.22
2022-08-27T11:58:29.580Z,23.27
2022-08-27T11:59:29.570Z,23.19
2022-08-27T12:00:29.565Z,23.17
2022-08-27T12:01:29.559Z,23.20
2022-08-27T12:02:29.577Z,23.34
2022-08-27T12:03:29.556Z,23.42
2022-08-27T12:04:29.554Z,23.38
2022-08-27T12:05:29.508Z,23.26
2022-08-27T12:06:29.517Z,23.32
2022-08-27T12:07:29.490Z,23.45
2022-08-27T12:08:29.486Z,23.50
2022-08-27T12:09:29.466Z,23.43
2022-08-27T12:10:29.463Z,23.45
2022-08-27T12:11:29.462Z,23.50
2022-08-27T12:12:29.443Z,23.39
2022-08-27T12:13:29.434Z,23.45
2022-08-27T12:14:29.425Z,23.34
2022-08-27T12:15:33.229Z,23.39
2022-08-27T12:16:30.454Z,23.43
2022-08-27T12:17:29.388Z,23.46
2022-08-27T12:18:29.385Z,23.62
2022-08-27T12:19:29.380Z,23.60
2022-08-27T12:20:29.367Z,23.67
2022-08-27T12:21:29.367Z,23.82
2022-08-27T12:22:29.346Z,23.70
2022-08-27T12:23:29.335Z,23.71
2022-08-27T12:24:29.329Z,23.67
2022-08-27T12:25:29.312Z,23.72
2022-08-27T12:26:29.314Z,23.65
2022-08-27T12:27:29.295Z,23.65
2022-08-27T12:28:29.288Z,23.71
2022-08-27T12:29:29.322Z,23.64
2022-08-27T12:30:29.267Z,23.58
2022-08-27T12:31:29.311Z,23.65
2022-08-27T12:32:29.251Z,23.72
2022-08-27T12:33:29.245Z,23.72
2022-08-27T12:34:29.335Z,23.75
2022-08-27T12:35:29.326Z,23.83
2022-08-27T12:36:29.387Z,23.89
2022-08-27T12:37:29.338Z,23.85
2022-08-27T12:38:29.274Z,23.98
2022-08-27T12:39:29.385Z,24.07
2022-08-27T12:40:29.258Z,24.08
2022-08-27T12:41:29.182Z,23.98
2022-08-27T12:42:29.159Z,24.08
2022-08-27T12:43:29.146Z,23.92
2022-08-27T12:44:29.146Z,23.89
2022-08-27T12:45:29.135Z,24.07
2022-08-27T12:46:29.799Z,24.12
2022-08-27T12:47:29.107Z,24.23
2022-08-27T12:48:29.109Z,24.26
2022-08-27T12:49:38.363Z,24.35
2022-08-27T12:50:30.161Z,24.41
2022-08-27T12:51:29.089Z,24.42
2022-08-27T12:52:29.100Z,24.56